createdAt,value
2022-07-27T00:05:40.789Z,16.79
2022-07-27T00:08:43.556Z,16.78
2022-07-27T00:11:46.340Z,16.85
2022-07-27T00:14:49.090Z,16.86
2022-07-27T00:17:51.850Z,16.85
2022-07-27T00:20:56.138Z,16.82
2022-07-27T00:23:58.872Z,16.88
2022-07-27T00:27:01.578Z,16.90
2022-07-27T00:30:05.091Z,16.92
2022-07-27T00:33:08.008Z,16.96
2022-07-27T00:36:12.130Z,17.04
2022-07-27T00:39:15.019Z,17.18
2022-07-27T00:42:21.142Z,17.23
2022-07-27T00:45:23.884Z,16.96
2022-07-27T00:48:29.200Z,16.99
2022-07-27T00:51:33.580Z,16.93
2022-07-27T00:54:36.364Z,17.00
2022-07-27T00:57:59.165Z,16.97
2022-07-27T01:01:02.072Z,16.89
2022-07-27T01:04:06.166Z,17.03
2022-07-27T01:07:10.620Z,17.11
2022-07-27T01:10:13.652Z,17.05
2022-07-27T01:13:17.379Z,16.97
2022-07-27T01:16:21.136Z,16.93
2022-07-27T01:19:23.894Z,17.00
2022-07-27T01:22:28.043Z,17.13
2022-07-27T01:25:30.737Z,17.15
2022-07-27T01:28:33.485Z,17.21
2022-07-27T01:31:36.261Z,17.08
2022-07-27T01:34:39.207Z,17.23
2022-07-27T01:37:47.625Z,17.20
2022-07-27T01:40:51.448Z,17.01
2022-07-27T01:43:54.186Z,16.93
2022-07-27T01:46:56.928Z,16.86
2022-07-27T01:49:59.713Z,16.76
2022-07-27T01:53:03.870Z,16.81
2022-07-27T01:56:10.838Z,16.66
2022-07-27T01:59:15.993Z,16.72
2022-07-27T02:02:19.774Z,16.68
2022-07-27T02:05:22.742Z,16.60
2022-07-27T02:08:26.948Z,16.56
2022-07-27T02:11:47.994Z,16.50
2022-07-27T02:14:50.769Z,16.54
2022-07-27T02:17:54.932Z,16.63
2022-07-27T02:20:57.666Z,16.65
2022-07-27T02:24:01.737Z,16.57
2022-07-27T02:27:04.582Z,16.49
2022-07-27T02:30:08.682Z,16.50
2022-07-27T02:33:11.594Z,16.43
2022-07-27T02:36:14.337Z,16.46
2022-07-27T02:39:18.410Z,16.43
2022-07-27T02:42:21.991Z,16.29
2022-07-27T02:45:24.836Z,16.27
2022-07-27T02:48:27.567Z,16.21
2022-07-27T02:51:30.264Z,16.25
2022-07-27T02:54:34.938Z,16.17
2022-07-27T02:57:41.195Z,16.14
2022-07-27T03:00:44.200Z,16.17
2022-07-27T03:03:47.300Z,15.88
2022-07-27T03:06:50.199Z,15.88
2022-07-27T03:09:54.227Z,15.93
2022-07-27T03:12:57.004Z,15.96
2022-07-27T03:15:59.764Z,15.97
2022-07-27T03:19:02.731Z,15.87
2022-07-27T03:22:05.504Z,15.94
2022-07-27T03:25:10.838Z,15.79
2022-07-27T03:28:13.655Z,15.75
2022-07-27T03:31:16.535Z,15.72
2022-07-27T03:34:19.362Z,15.85
2022-07-27T03:37:22.095Z,15.97
2022-07-27T03:40:26.180Z,15.86
2022-07-27T03:43:28.941Z,15.73
2022-07-27T03:46:31.752Z,15.75
2022-07-27T03:49:34.550Z,15.80
2022-07-27T03:52:37.360Z,15.70
2022-07-27T03:55:41.513Z,15.69
2022-07-27T03:58:44.521Z,15.64
2022-07-27T04:01:47.464Z,15.62
2022-07-27T04:04:50.248Z,15.40
2022-07-27T04:07:54.941Z,15.33
2022-07-27T04:10:59.213Z,15.20
2022-07-27T04:14:03.375Z,15.13
2022-07-27T04:17:06.569Z,15.11
2022-07-27T04:20:10.576Z,15.08
2022-07-27T04:23:13.316Z,15.02
2022-07-27T04:26:17.517Z,14.99
2022-07-27T04:29:21.238Z,14.89
2022-07-27T04:32:24.467Z,14.77
2022-07-27T04:35:27.392Z,14.77
2022-07-27T04:38:30.375Z,14.63
2022-07-27T04:41:34.586Z,14.66
2022-07-27T04:44:37.351Z,14.77
2022-07-27T04:47:40.095Z,14.72
2022-07-27T04:50:43.643Z,14.55
2022-07-27T04:53:52.394Z,14.43
2022-07-27T04:57:02.185Z,14.55
2022-07-27T05:00:05.873Z,14.34
2022-07-27T05:03:09.255Z,14.21
2022-07-27T05:06:12.012Z,14.23
2022-07-27T05:09:15.033Z,14.22
2022-07-27T05:12:26.528Z,14.27
2022-07-27T05:15:29.410Z,14.32
2022-07-27T05:18:52.098Z,14.36
2022-07-27T05:21:54.917Z,14.29
2022-07-27T05:24:57.653Z,14.35
2022-07-27T05:28:01.708Z,14.34
2022-07-27T05:31:04.454Z,14.45
2022-07-27T05:34:07.204Z,14.55
2022-07-27T05:37:10.377Z,14.59
2022-07-27T05:40:13.785Z,14.45
2022-07-27T05:43:17.903Z,14.47
2022-07-27T05:46:21.085Z,14.59
2022-07-27T05:49:24.077Z,14.53
2022-07-27T05:52:26.886Z,14.51
2022-07-27T05:55:29.633Z,14.63
2022-07-27T05:58:33.783Z,14.58
2022-07-27T06:01:36.723Z,14.31
2022-07-27T06:04:39.547Z,14.30
2022-07-27T06:08:00.414Z,14.41
2022-07-27T06:11:03.415Z,14.31
2022-07-27T06:14:07.538Z,14.23
2022-07-27T06:17:11.328Z,14.22
2022-07-27T06:20:14.668Z,14.18
2022-07-27T06:23:17.372Z,14.34
2022-07-27T06:26:20.131Z,14.28
2022-07-27T06:29:24.196Z,14.23
2022-07-27T06:32:26.997Z,14.30
2022-07-27T06:35:29.776Z,14.35
2022-07-27T06:38:33.769Z,14.42
2022-07-27T06:41:36.494Z,14.52
2022-07-27T06:44:43.244Z,14.54
2022-07-27T06:47:49.327Z,14.49
2022-07-27T06:50:53.643Z,14.45
2022-07-27T06:53:56.457Z,14.42
2022-07-27T06:56:59.489Z,14.39
2022-07-27T07:00:03.782Z,14.52
2022-07-27T07:03:07.525Z,14.50
2022-07-27T07:06:10.472Z,14.47
2022-07-27T07:09:13.643Z,14.39
2022-07-27T07:12:18.406Z,14.26
2022-07-27T07:15:22.722Z,14.34
2022-07-27T07:18:28.291Z,14.31
2022-07-27T07:21:31.961Z,14.26
2022-07-27T07:24:34.887Z,14.14
2022-07-27T07:27:38.038Z,14.19
2022-07-27T07:30:42.791Z,14.19
2022-07-27T07:33:46.191Z,14.27
2022-07-27T07:36:48.923Z,14.26
2022-07-27T07:39:51.708Z,14.39
2022-07-27T07:42:57.349Z,14.45
2022-07-27T07:46:01.415Z,14.53
2022-07-27T07:49:04.467Z,14.60
2022-07-27T07:52:07.869Z,14.62
2022-07-27T07:55:11.712Z,14.71
2022-07-27T07:58:14.498Z,14.80
2022-07-27T08:01:18.572Z,14.86
2022-07-27T08:04:21.307Z,14.82
2022-07-27T08:07:24.101Z,14.94
2022-07-27T08:10:28.347Z,14.87
2022-07-27T08:13:31.155Z,14.92
2022-07-27T08:16:35.311Z,14.86
2022-07-27T08:19:40.230Z,14.93
2022-07-27T08:22:44.342Z,14.96
2022-07-27T08:25:48.356Z,14.76
2022-07-27T08:28:51.106Z,14.98
2022-07-27T08:31:55.345Z,15.03
2022-07-27T08:34:59.003Z,14.91
2022-07-27T08:38:03.895Z,14.93
2022-07-27T08:41:09.005Z,15.01
2022-07-27T08:44:15.122Z,14.97
2022-07-27T08:47:22.855Z,15.06
2022-07-27T08:50:27.613Z,15.19
2022-07-27T08:53:42.030Z,15.25
2022-07-27T08:56:55.810Z,15.28
2022-07-27T08:59:59.111Z,15.40
2022-07-27T09:03:04.174Z,15.29
2022-07-27T09:06:07.173Z,15.41
2022-07-27T09:09:10.932Z,15.45
2022-07-27T09:12:14.682Z,15.40
2022-07-27T09:15:18.121Z,15.45
2022-07-27T09:18:24.349Z,15.22
2022-07-27T09:21:28.359Z,15.41
2022-07-27T09:24:46.438Z,15.48
2022-07-27T09:27:54.814Z,15.65
2022-07-27T09:31:07.506Z,15.64
2022-07-27T09:34:13.046Z,15.79
2022-07-27T09:37:25.076Z,15.84
2022-07-27T09:40:28.265Z,15.95
2022-07-27T09:46:58.650Z,15.97
2022-07-27T09:50:20.525Z,15.93
2022-07-27T09:53:42.324Z,15.86
2022-07-27T09:56:46.434Z,16.02
2022-07-27T09:59:49.563Z,16.16
2022-07-27T10:02:54.396Z,16.19
2022-07-27T10:06:00.386Z,16.19
2022-07-27T10:09:04.023Z,16.30
2022-07-27T10:12:08.132Z,16.31
2022-07-27T10:15:16.298Z,16.42
2022-07-27T10:18:29.015Z,16.31
2022-07-27T10:21:35.345Z,16.46
2022-07-27T10:24:38.601Z,16.54
2022-07-27T10:27:41.747Z,16.52
2022-07-27T10:30:47.246Z,16.74
2022-07-27T10:33:56.722Z,16.78
2022-07-27T10:37:09.822Z,16.87
2022-07-27T10:40:35.230Z,16.88
2022-07-27T10:43:38.031Z,16.81
2022-07-27T10:46:44.227Z,16.86
2022-07-27T10:49:47.000Z,17.09
2022-07-27T10:52:53.188Z,17.11
2022-07-27T10:55:56.152Z,17.10
2022-07-27T10:59:01.258Z,17.35
2022-07-27T11:02:07.089Z,17.45
2022-07-27T11:05:32.890Z,17.46
2022-07-27T11:08:46.658Z,17.66
2022-07-27T11:11:50.754Z,17.89
2022-07-27T11:14:56.074Z,17.81
2022-07-27T11:18:03.411Z,17.95
2022-07-27T11:21:16.292Z,18.15
2022-07-27T11:24:23.549Z,18.31
2022-07-27T11:27:26.508Z,18.48
2022-07-27T11:30:30.357Z,18.68
2022-07-27T11:33:34.116Z,18.66
2022-07-27T11:36:42.550Z,18.62
2022-07-27T11:40:00.368Z,18.63
2022-07-27T11:43:05.921Z,18.62
2022-07-27T11:46:14.487Z,18.85
2022-07-27T11:49:21.570Z,18.91
2022-07-27T11:52:25.763Z,19.24
2022-07-27T11:55:29.857Z,19.23
2022-07-27T11:58:32.830Z,18.88
2022-07-27T12:01:38.697Z,19.13
2022-07-27T12:04:42.865Z,19.00
2022-07-27T12:07:45.708Z,18.89
2022-07-27T12:11:02.031Z,18.79
2022-07-27T12:14:12.809Z,18.74
2022-07-27T12:17:19.028Z,18.99
2022-07-27T12:20:24.236Z,19.16
2022-07-27T12:23:30.566Z,18.91
2022-07-27T12:26:34.707Z,19.10
2022-07-27T12:30:00.295Z,19.14
2022-07-27T12:33:04.690Z,19.50
2022-07-27T12:36:09.041Z,18.97
2022-07-27T12:39:26.685Z,19.06
2022-07-27T12:42:37.608Z,19.46
2022-07-27T12:45:40.677Z,19.68
2022-07-27T12:48:44.033Z,19.13
2022-07-27T12:51:46.767Z,19.34
2022-07-27T12:54:49.449Z,19.06
2022-07-27T12:57:56.567Z,19.21
2022-07-27T13:01:00.050Z,19.33
2022-07-27T13:04:02.892Z,19.54
2022-07-27T13:07:05.684Z,19.45
2022-07-27T13:10:11.901Z,19.84
2022-07-27T13:13:15.988Z,19.93
2022-07-27T13:16:18.805Z,19.99
2022-07-27T13:19:21.668Z,19.80
2022-07-27T13:22:24.520Z,19.85
2022-07-27T13:25:27.490Z,19.53
2022-07-27T13:28:31.536Z,19.72
2022-07-27T13:31:34.704Z,19.67
2022-07-27T13:34:37.488Z,19.58
2022-07-27T13:37:42.201Z,19.51
2022-07-27T13:40:45.047Z,19.65
2022-07-27T13:43:49.063Z,19.93
2022-07-27T13:46:52.166Z,19.78
2022-07-27T13:49:56.849Z,19.79
2022-07-27T13:52:59.582Z,19.96
2022-07-27T13:56:03.101Z,20.25
2022-07-27T13:59:07.993Z,19.98
2022-07-27T14:02:11.581Z,20.10
2022-07-27T14:05:15.959Z,19.74
2022-07-27T14:08:20.998Z,19.98
2022-07-27T14:11:23.896Z,19.68
2022-07-27T14:14:27.951Z,19.46
2022-07-27T14:17:30.681Z,19.42
2022-07-27T14:20:33.923Z,19.34
2022-07-27T14:23:38.018Z,19.69
2022-07-27T14:26:40.828Z,20.01
2022-07-27T14:29:44.959Z,20.03
2022-07-27T14:32:47.657Z,19.84
2022-07-27T14:35:50.611Z,19.82
2022-07-27T14:38:53.534Z,19.70
2022-07-27T14:41:56.248Z,19.87
2022-07-27T14:45:00.361Z,19.44
2022-07-27T14:48:03.183Z,19.59
2022-07-27T14:51:06.133Z,19.56
2022-07-27T14:54:08.900Z,19.59
2022-07-27T14:57:11.677Z,19.36
2022-07-27T15:00:17.701Z,19.11
2022-07-27T15:03:21.234Z,19.08
2022-07-27T15:06:24.204Z,18.94
2022-07-27T15:09:28.509Z,19.01
2022-07-27T15:12:33.775Z,19.19
2022-07-27T15:15:41.754Z,19.26
2022-07-27T15:18:45.681Z,19.18
2022-07-27T15:21:48.638Z,19.18
2022-07-27T15:24:52.612Z,19.07
2022-07-27T15:27:55.309Z,19.06
2022-07-27T15:30:59.455Z,19.04
2022-07-27T15:34:02.271Z,19.04
2022-07-27T15:37:07.493Z,19.00
2022-07-27T15:40:29.381Z,19.08
2022-07-27T15:43:32.131Z,19.07
2022-07-27T15:46:36.394Z,19.16
2022-07-27T15:49:39.136Z,19.07
2022-07-27T15:52:41.883Z,19.16
2022-07-27T15:55:45.751Z,19.05
2022-07-27T15:58:48.478Z,19.09
2022-07-27T16:01:52.553Z,19.27
2022-07-27T16:04:56.483Z,19.18
2022-07-27T16:07:59.198Z,19.29
2022-07-27T16:11:01.952Z,19.45
2022-07-27T16:14:04.704Z,19.53
2022-07-27T16:17:08.783Z,19.59
2022-07-27T16:20:12.122Z,19.69
2022-07-27T16:23:21.183Z,19.71
2022-07-27T16:26:25.246Z,19.73
2022-07-27T16:29:28.437Z,19.87
2022-07-27T16:32:32.551Z,19.98
2022-07-27T16:35:35.256Z,19.89
2022-07-27T16:38:39.133Z,19.92
2022-07-27T16:41:53.072Z,19.96
2022-07-27T16:44:56.362Z,19.86
2022-07-27T16:48:00.656Z,19.93
2022-07-27T16:51:03.630Z,19.79
2022-07-27T16:54:09.173Z,19.72
2022-07-27T16:57:11.885Z,19.44
2022-07-27T17:00:16.341Z,19.45
2022-07-27T17:03:20.856Z,19.40
2022-07-27T17:06:24.415Z,19.37
2022-07-27T17:09:28.634Z,19.44
2022-07-27T17:12:38.122Z,19.52
2022-07-27T17:15:42.101Z,19.55
2022-07-27T17:18:46.303Z,19.52
2022-07-27T17:21:49.061Z,19.41
2022-07-27T17:24:51.822Z,19.29
2022-07-27T17:27:54.524Z,19.24
2022-07-27T17:30:57.321Z,19.32
2022-07-27T17:34:01.589Z,19.37
2022-07-27T17:37:04.396Z,19.22
2022-07-27T17:40:08.082Z,19.18
2022-07-27T17:43:10.900Z,19.29
2022-07-27T17:46:13.815Z,19.25
2022-07-27T17:49:18.624Z,19.20
2022-07-27T17:52:22.363Z,19.12
2022-07-27T17:55:25.412Z,19.10
2022-07-27T17:58:30.438Z,19.11
2022-07-27T18:01:47.401Z,19.02
2022-07-27T18:04:52.835Z,18.96
2022-07-27T18:07:55.608Z,18.95
2022-07-27T18:10:58.444Z,18.93
2022-07-27T18:14:01.252Z,18.82
2022-07-27T18:17:03.977Z,18.72
2022-07-27T18:20:10.576Z,18.59
2022-07-27T18:23:14.159Z,18.54
2022-07-27T18:26:17.006Z,18.54
2022-07-27T18:29:19.718Z,18.42
2022-07-27T18:32:22.420Z,18.38
2022-07-27T18:35:26.573Z,18.32
2022-07-27T18:38:29.289Z,18.22
2022-07-27T18:41:32.253Z,18.12
2022-07-27T18:44:39.132Z,18.06
2022-07-27T18:47:41.938Z,17.93
2022-07-27T18:50:53.936Z,17.74
2022-07-27T18:53:56.674Z,17.72
2022-07-27T18:56:59.932Z,17.65
2022-07-27T19:00:02.962Z,17.59
2022-07-27T19:03:06.128Z,17.31
2022-07-27T19:06:17.911Z,17.18
2022-07-27T19:09:21.497Z,16.98
2022-07-27T19:12:24.430Z,16.94
2022-07-27T19:15:27.369Z,16.67
2022-07-27T19:18:30.107Z,16.54
2022-07-27T19:21:34.163Z,16.34
2022-07-27T19:24:36.884Z,16.20
2022-07-27T19:27:42.895Z,15.88
2022-07-27T19:30:46.462Z,16.08
2022-07-27T19:33:49.203Z,16.12
2022-07-27T19:36:53.268Z,15.90
2022-07-27T19:40:02.361Z,15.87
2022-07-27T19:43:12.465Z,15.80
2022-07-27T19:46:15.347Z,15.63
2022-07-27T19:49:18.698Z,15.73
2022-07-27T19:52:23.126Z,15.62
2022-07-27T19:55:25.988Z,15.62
2022-07-27T19:58:28.746Z,15.64
2022-07-27T20:01:31.502Z,15.76
2022-07-27T20:04:37.275Z,15.80
2022-07-27T20:07:46.508Z,15.70
2022-07-27T20:10:49.304Z,15.44
2022-07-27T20:13:52.140Z,15.58
2022-07-27T20:16:54.909Z,15.53
2022-07-27T20:19:57.662Z,15.39
2022-07-27T20:23:01.767Z,15.26
2022-07-27T20:26:04.586Z,15.29
2022-07-27T20:29:07.690Z,15.08
2022-07-27T20:32:10.390Z,14.65
2022-07-27T20:35:13.122Z,14.56
2022-07-27T20:38:17.182Z,14.56
2022-07-27T20:41:19.938Z,14.33
2022-07-27T20:44:22.791Z,14.17
2022-07-27T20:47:27.827Z,13.88
2022-07-27T20:50:32.606Z,14.04
2022-07-27T20:53:36.647Z,13.98
2022-07-27T20:56:39.402Z,14.11
2022-07-27T20:59:42.120Z,13.93
2022-07-27T21:02:45.184Z,14.01
2022-07-27T21:05:47.960Z,13.68
2022-07-27T21:08:52.228Z,13.50
2022-07-27T21:11:54.992Z,13.35
2022-07-27T21:14:58.265Z,13.40
2022-07-27T21:18:01.355Z,13.41
2022-07-27T21:21:04.343Z,13.06
2022-07-27T21:24:19.970Z,13.41
2022-07-27T21:27:23.109Z,13.51
2022-07-27T21:30:25.909Z,13.36
2022-07-27T21:33:28.734Z,13.25
2022-07-27T21:36:31.575Z,13.17
2022-07-27T21:39:36.221Z,13.01
2022-07-27T21:42:39.576Z,12.94
2022-07-27T21:45:47.958Z,12.83
2022-07-27T21:48:52.625Z,12.71
2022-07-27T21:51:55.437Z,12.57
2022-07-27T21:54:59.927Z,12.63
2022-07-27T21:58:02.642Z,12.60
2022-07-27T22:01:05.393Z,12.57
2022-07-27T22:04:09.730Z,12.66
2022-07-27T22:07:16.794Z,12.87
2022-07-27T22:10:23.831Z,12.79
2022-07-27T22:13:26.636Z,12.67
2022-07-27T22:16:29.423Z,12.48
2022-07-27T22:19:32.259Z,12.52
2022-07-27T22:22:35.306Z,12.53
2022-07-27T22:25:39.565Z,12.45
2022-07-27T22:28:42.448Z,12.45
2022-07-27T22:31:45.238Z,12.31
2022-07-27T22:34:47.986Z,12.26
2022-07-27T22:37:50.909Z,12.38
2022-07-27T22:40:54.969Z,12.31
2022-07-27T22:43:57.678Z,12.14
2022-07-27T22:47:00.398Z,12.16
2022-07-27T22:50:04.299Z,11.97
2022-07-27T22:53:07.411Z,12.17
2022-07-27T22:56:11.473Z,12.41
2022-07-27T22:59:14.503Z,12.32
2022-07-27T23:02:17.251Z,12.37
2022-07-27T23:05:20.064Z,12.22
2022-07-27T23:08:22.832Z,12.34
2022-07-27T23:11:26.914Z,12.15
2022-07-27T23:14:31.031Z,11.87
2022-07-27T23:17:33.785Z,12.00
2022-07-27T23:20:37.288Z,11.83
2022-07-27T23:23:49.933Z,12.01
2022-07-27T23:26:58.209Z,11.88
2022-07-27T23:30:01.185Z,11.76
2022-07-27T23:33:03.914Z,11.72
2022-07-27T23:36:06.780Z,11.45
2022-07-27T23:39:09.587Z,11.56
2022-07-27T23:42:13.702Z,11.64
2022-07-27T23:45:16.543Z,11.35
2022-07-27T23:48:19.284Z,11.47
2022-07-27T23:51:22.063Z,11.48
2022-07-27T23:54:24.774Z,11.47
2022-07-27T23:57:29.342Z,11.34
